Time;durP1;ratioP1;P1;durP2;ratioP2;P2;SDS_P1;SDS_P2;PMS_P1;PMS_P2;Temp;Humidity;BMP_temperature;BMP_pressure;BME280_temperature;BME280_humidity;BME280_pressure;Samples;Min_cycle;Max_cycle;Signal;HPM_P1;HPM_P2
2023/03/06 00:00:21;;;;;;;5.43;0.60;;;2.60;99.90;;;;;;5094549;28;20079;-63
2023/03/06 00:02:46;;;;;;;1.70;0.60;;;2.50;99.90;;;;;;5094394;28;20046;-65
2023/03/06 00:05:13;;;;;;;0.68;0.65;;;2.50;99.90;;;;;;5094157;28;20075;-62
2023/03/06 00:07:39;;;;;;;2.33;0.88;;;2.60;99.90;;;;;;5093179;28;20177;-62
2023/03/06 00:10:05;;;;;;;0.93;0.50;;;2.50;99.90;;;;;;5092807;28;20044;-62
2023/03/06 00:12:31;;;;;;;1.55;0.55;;;2.60;99.90;;;;;;5094037;28;20547;-62
2023/03/06 00:14:56;;;;;;;0.77;0.68;;;2.50;99.90;;;;;;5094183;28;20066;-62
2023/03/06 00:17:22;;;;;;;1.33;0.50;;;2.50;99.90;;;;;;5093649;28;20055;-62
2023/03/06 00:19:47;;;;;;;1.40;0.68;;;2.50;99.90;;;;;;5094114;28;20456;-62
2023/03/06 00:22:14;;;;;;;1.25;0.55;;;2.50;99.90;;;;;;5094106;28;20051;-62
2023/03/06 00:24:41;;;;;;;0.43;0.40;;;2.50;99.90;;;;;;5092927;28;20422;-63
2023/03/06 00:27:08;;;;;;;1.08;0.63;;;2.60;99.90;;;;;;5093812;28;20122;-62
2023/03/06 00:29:34;;;;;;;1.27;0.68;;;2.50;99.90;;;;;;5093974;28;20106;-62
2023/03/06 00:31:59;;;;;;;0.45;0.40;;;2.60;99.90;;;;;;5093801;28;20071;-62
2023/03/06 00:34:25;;;;;;;1.27;0.75;;;2.60;99.90;;;;;;5093497;28;20043;-62
2023/03/06 00:36:51;;;;;;;0.80;0.60;;;2.60;99.90;;;;;;5093629;28;20082;-62
2023/03/06 00:39:17;;;;;;;1.58;0.80;;;2.60;99.90;;;;;;5091441;28;20426;-62
2023/03/06 00:41:42;;;;;;;0.85;0.60;;;2.60;99.90;;;;;;5093685;28;20040;-64
2023/03/06 00:44:08;;;;;;;0.60;0.60;;;2.60;99.90;;;;;;5093722;28;20173;-63
2023/03/06 00:46:34;;;;;;;2.40;0.75;;;2.50;99.90;;;;;;5093616;28;20036;-62
2023/03/06 00:48:59;;;;;;;0.55;0.55;;;2.60;99.90;;;;;;5093602;28;20422;-62
2023/03/06 00:51:25;;;;;;;3.35;0.90;;;2.60;99.90;;;;;;5093557;28;20089;-62
2023/03/06 00:53:51;;;;;;;0.75;0.70;;;2.60;99.90;;;;;;5093304;28;20039;-62
2023/03/06 00:56:17;;;;;;;0.75;0.43;;;2.60;99.90;;;;;;5093532;28;20480;-63
2023/03/06 00:58:42;;;;;;;1.05;0.57;;;2.60;99.90;;;;;;5093375;28;20051;-62
2023/03/06 01:01:08;;;;;;;2.05;0.73;;;2.60;99.90;;;;;;5093357;28;20570;-62
2023/03/06 01:03:34;;;;;;;1.25;0.70;;;2.60;99.90;;;;;;5093350;28;20028;-62
2023/03/06 01:05:59;;;;;;;1.30;0.57;;;2.60;99.90;;;;;;5108919;28;20085;-62
2023/03/06 01:08:25;;;;;;;4.05;1.30;;;2.60;99.90;;;;;;5108693;28;20078;-62
2023/03/06 01:10:50;;;;;;;4.43;1.35;;;2.60;99.90;;;;;;5093299;28;20040;-62
2023/03/06 01:13:16;;;;;;;0.73;0.55;;;2.70;99.90;;;;;;5092831;28;20095;-62
2023/03/06 01:15:42;;;;;;;0.40;0.40;;;2.70;99.90;;;;;;5093015;28;20127;-62
2023/03/06 01:18:07;;;;;;;0.40;0.40;;;2.60;99.90;;;;;;5093129;28;20119;-62
2023/03/06 01:20:33;;;;;;;0.75;0.60;;;2.60;99.90;;;;;;5093158;28;20036;-63
2023/03/06 01:22:59;;;;;;;2.53;0.90;;;2.70;99.90;;;;;;5093115;28;20407;-62
2023/03/06 01:25:25;;;;;;;0.98;0.47;;;2.70;99.90;;;;;;5091575;28;20111;-62
2023/03/06 01:27:51;;;;;;;0.80;0.43;;;2.60;99.90;;;;;;5093037;28;20514;-63
2023/03/06 01:30:18;;;;;;;1.35;0.55;;;2.60;99.90;;;;;;5092765;28;20036;-62
2023/03/06 01:32:43;;;;;;;0.70;0.70;;;2.60;99.90;;;;;;5092993;28;20036;-62
2023/03/06 01:35:10;;;;;;;1.60;0.70;;;2.70;99.90;;;;;;5093049;28;20070;-62
2023/03/06 01:37:37;;;;;;;1.30;0.80;;;2.70;99.90;;;;;;5092915;28;20391;-62
2023/03/06 01:40:04;;;;;;;2.05;0.98;;;2.70;99.90;;;;;;5091623;28;20054;-62
2023/03/06 01:42:29;;;;;;;0.80;0.50;;;2.70;99.90;;;;;;5092988;28;20036;-62
2023/03/06 01:45:10;;;;;;;0.73;0.52;;;2.60;99.90;;;;;;5092647;28;20039;-62
2023/03/06 01:47:35;;;;;;;2.58;0.68;;;2.60;99.90;;;;;;5092896;28;20080;-62
2023/03/06 01:50:02;;;;;;;1.13;0.60;;;2.60;99.90;;;;;;5094791;28;20488;-62
2023/03/06 01:52:34;;;;;;;2.72;1.10;;;2.60;99.90;;;;;;5097037;28;20047;-62
2023/03/06 01:55:03;;;;;;;;;;;2.60;99.90;;;;;;5097332;28;20396;-62
2023/03/06 01:57:32;;;;;;;1.00;0.50;;;2.60;99.90;;;;;;5096889;28;19992;-62
2023/03/06 02:00:13;;;;;;;1.65;0.70;;;2.70;99.90;;;;;;5096831;28;20040;-62
2023/03/06 02:02:42;;;;;;;0.68;0.52;;;2.60;99.90;;;;;;5096884;28;20097;-62
2023/03/06 02:05:08;;;;;;;1.23;0.70;;;2.60;99.90;;;;;;5096803;28;20040;-62
2023/03/06 02:07:36;;;;;;;1.42;0.52;;;2.60;99.90;;;;;;5096713;28;20036;-62
2023/03/06 02:10:02;;;;;;;1.90;0.70;;;2.60;99.90;;;;;;5096677;28;20483;-62
2023/03/06 02:12:27;;;;;;;3.92;0.55;;;2.60;99.90;;;;;;5096310;28;20040;-62
2023/03/06 02:14:53;;;;;;;1.20;0.60;;;2.60;99.90;;;;;;5096281;28;20040;-62
2023/03/06 02:17:20;;;;;;;1.85;0.77;;;2.60;99.90;;;;;;5096021;28;20056;-62
2023/03/06 02:20:15;;;;;;;0.77;0.50;;;2.60;99.90;;;;;;5096481;28;20039;-62
2023/03/06 02:23:07;;;;;;;1.55;0.55;;;2.60;99.90;;;;;;5096504;28;20119;-63
2023/03/06 02:25:40;;;;;;;2.00;0.50;;;2.60;99.90;;;;;;5096056;28;20040;-61
2023/03/06 02:28:08;;;;;;;3.60;0.60;;;2.60;99.90;;;;;;5096272;28;20036;-62
2023/03/06 02:30:35;;;;;;;0.43;0.40;;;2.60;99.90;;;;;;5096000;28;20032;-62
2023/03/06 02:33:01;;;;;;;0.52;0.38;;;2.60;99.90;;;;;;5096241;28;20034;-62
2023/03/06 02:35:33;;;;;;;1.30;0.82;;;2.60;99.90;;;;;;5096199;28;20029;-61
2023/03/06 02:38:04;;;;;;;2.67;0.52;;;2.60;99.90;;;;;;5096075;28;20044;-61
2023/03/06 02:40:30;;;;;;;;;;;2.60;99.90;;;;;;5096521;28;20541;-61
2023/03/06 02:42:57;;;;;;;1.00;0.63;;;2.50;99.90;;;;;;5095962;28;19916;-61
2023/03/06 02:45:32;;;;;;;0.50;0.50;;;2.60;99.90;;;;;;5094807;28;20114;-61
2023/03/06 02:47:58;;;;;;;2.72;0.65;;;2.50;99.90;;;;;;5095961;28;20115;-61
2023/03/06 02:50:23;;;;;;;1.75;0.85;;;2.50;99.90;;;;;;5095859;28;20124;-62
2023/03/06 02:52:49;;;;;;;1.23;0.73;;;2.50;99.90;;;;;;5095573;28;20545;-62
2023/03/06 02:55:15;;;;;;;1.40;0.65;;;2.40;99.90;;;;;;5095807;28;20043;-62
2023/03/06 02:57:40;;;;;;;0.65;0.52;;;2.40;99.90;;;;;;5095597;28;20086;-61
2023/03/06 03:00:07;;;;;;;1.35;0.70;;;2.30;99.90;;;;;;5095393;28;20142;-63
2023/03/06 03:02:33;;;;;;;3.65;0.60;;;2.20;99.90;;;;;;5094751;28;20384;-62
2023/03/06 03:04:58;;;;;;;1.30;0.68;;;2.10;99.90;;;;;;5109168;22;20098;-63
2023/03/06 03:07:24;;;;;;;0.63;0.50;;;2.00;99.90;;;;;;5095738;28;20056;-63
2023/03/06 03:09:50;;;;;;;0.90;0.55;;;1.90;99.90;;;;;;5077313;28;20071;-63
2023/03/06 03:12:16;;;;;;;1.27;0.50;;;1.90;99.90;;;;;;5095712;28;20043;-63
2023/03/06 03:14:41;;;;;;;1.02;0.70;;;1.80;99.90;;;;;;5095677;28;20032;-63
2023/03/06 03:17:07;;;;;;;0.45;0.43;;;1.80;99.90;;;;;;5095479;28;20097;-63
2023/03/06 03:19:33;;;;;;;0.40;0.40;;;1.70;99.90;;;;;;5095466;28;20039;-63
2023/03/06 03:21:58;;;;;;;1.10;0.70;;;1.70;99.90;;;;;;5095419;28;20383;-63
2023/03/06 03:24:24;;;;;;;1.63;0.70;;;1.70;99.90;;;;;;5095452;28;20070;-63
2023/03/06 03:26:50;;;;;;;0.90;0.75;;;1.70;99.90;;;;;;5095317;28;20028;-63
2023/03/06 03:29:16;;;;;;;0.95;0.50;;;1.70;99.90;;;;;;5095125;28;20395;-63
2023/03/06 03:31:42;;;;;;;0.50;0.40;;;1.70;99.90;;;;;;5095299;28;20040;-63
2023/03/06 03:34:07;;;;;;;0.60;0.50;;;1.70;99.90;;;;;;5095161;28;20086;-63
2023/03/06 03:36:33;;;;;;;0.60;0.60;;;1.60;99.90;;;;;;5095192;28;20036;-63
2023/03/06 03:38:59;;;;;;;2.45;0.70;;;1.60;99.90;;;;;;5095032;28;20036;-63
2023/03/06 03:41:24;;;;;;;0.73;0.50;;;1.60;99.90;;;;;;5077130;28;20036;-63
2023/03/06 03:43:51;;;;;;;1.10;0.75;;;1.60;99.90;;;;;;5095042;28;20035;-63
2023/03/06 03:46:20;;;;;;;0.40;0.40;;;1.50;99.90;;;;;;5094915;28;20133;-63
2023/03/06 03:48:46;;;;;;;0.65;0.57;;;1.50;99.90;;;;;;5094969;28;20448;-63
2023/03/06 03:51:15;;;;;;;0.82;0.60;;;1.50;99.90;;;;;;5076864;28;20083;-63
2023/03/06 03:53:42;;;;;;;0.80;0.50;;;1.50;99.90;;;;;;5094807;28;20116;-63
2023/03/06 03:56:07;;;;;;;0.73;0.60;;;1.50;99.90;;;;;;5094546;28;20583;-63
2023/03/06 03:58:33;;;;;;;1.23;0.70;;;1.60;99.90;;;;;;5094310;28;20123;-63
2023/03/06 04:00:59;;;;;;;0.77;0.60;;;1.40;99.90;;;;;;5094322;28;20075;-63
2023/03/06 04:03:25;;;;;;;0.82;0.60;;;1.40;99.90;;;;;;5094609;28;20040;-64
2023/03/06 04:05:53;;;;;;;1.77;0.85;;;1.40;99.90;;;;;;5094207;28;20444;-63
2023/03/06 04:08:19;;;;;;;1.15;0.80;;;1.40;99.90;;;;;;5076462;28;20055;-63
2023/03/06 04:10:45;;;;;;;2.58;1.08;;;1.50;99.90;;;;;;5076035;28;20055;-63
2023/03/06 04:13:10;;;;;;;0.75;0.60;;;1.40;99.90;;;;;;5094098;28;20040;-63
2023/03/06 04:15:38;;;;;;;1.05;0.63;;;1.40;99.90;;;;;;5076028;28;20052;-63
2023/03/06 04:18:04;;;;;;;2.13;0.77;;;1.30;99.90;;;;;;5094280;28;20540;-63
2023/03/06 04:20:30;;;;;;;1.92;1.10;;;1.30;99.90;;;;;;5059174;28;20180;-63
2023/03/06 04:22:55;;;;;;;1.13;0.70;;;1.40;99.90;;;;;;5094249;28;20081;-63
2023/03/06 04:25:21;;;;;;;0.90;0.60;;;1.40;99.90;;;;;;5094145;28;20086;-63
2023/03/06 04:27:47;;;;;;;2.15;0.70;;;1.40;99.90;;;;;;5075651;28;20571;-63
2023/03/06 04:30:12;;;;;;;0.73;0.63;;;1.40;99.90;;;;;;5075763;28;20036;-63
2023/03/06 04:32:38;;;;;;;0.82;0.63;;;1.40;99.90;;;;;;5093674;28;20044;-63
2023/03/06 04:35:04;;;;;;;1.55;0.70;;;1.30;99.90;;;;;;5075617;28;20459;-63
2023/03/06 04:37:33;;;;;;;0.73;0.52;;;1.30;99.90;;;;;;5075748;28;20043;-63
2023/03/06 04:40:03;;;;;;;0.60;0.47;;;1.30;99.90;;;;;;5093098;28;20106;-63
2023/03/06 04:42:28;;;;;;;0.52;0.45;;;1.30;99.90;;;;;;5093994;28;20062;-63
2023/03/06 04:44:54;;;;;;;1.77;0.98;;;1.30;99.90;;;;;;5093883;28;20039;-63
2023/03/06 04:47:20;;;;;;;0.80;0.60;;;1.20;99.90;;;;;;5093556;28;20122;-63
2023/03/06 04:49:46;;;;;;;0.60;0.60;;;1.20;99.90;;;;;;5075529;28;20054;-63
2023/03/06 04:52:14;;;;;;;0.60;0.57;;;1.20;99.90;;;;;;5075329;28;20131;-63
2023/03/06 04:54:41;;;;;;;0.47;0.40;;;1.40;99.90;;;;;;5093753;28;20127;-63
2023/03/06 04:57:07;;;;;;;0.63;0.47;;;1.30;99.90;;;;;;5093634;28;20115;-63
2023/03/06 04:59:32;;;;;;;0.93;0.70;;;1.30;99.90;;;;;;5093539;28;20116;-63
2023/03/06 05:01:58;;;;;;;1.58;0.63;;;1.30;99.90;;;;;;5093599;28;20043;-63
2023/03/06 05:04:24;;;;;;;1.65;0.68;;;1.30;99.90;;;;;;5093422;28;20040;-63
2023/03/06 05:06:50;;;;;;;0.68;0.50;;;1.30;99.90;;;;;;5093472;28;20109;-63
2023/03/06 05:09:16;;;;;;;1.83;0.63;;;1.30;99.90;;;;;;5075437;28;20533;-63
2023/03/06 05:11:41;;;;;;;0.32;0.30;;;1.30;99.90;;;;;;5075068;28;20086;-63
2023/03/06 05:14:07;;;;;;;1.15;0.68;;;1.30;99.90;;;;;;5093472;28;20039;-63
2023/03/06 05:16:33;;;;;;;0.35;0.35;;;1.30;99.90;;;;;;5058307;28;20039;-63
2023/03/06 05:18:58;;;;;;;1.55;0.65;;;1.30;99.90;;;;;;5093254;28;20119;-63
2023/03/06 05:21:24;;;;;;;0.80;0.50;;;1.30;99.90;;;;;;5075021;28;20048;-63
2023/03/06 05:23:49;;;;;;;1.27;0.57;;;1.30;99.90;;;;;;5074571;28;20044;-63
2023/03/06 05:26:15;;;;;;;0.47;0.40;;;1.20;99.90;;;;;;5075204;28;20032;-63
2023/03/06 05:28:41;;;;;;;0.40;0.40;;;1.20;99.90;;;;;;5074945;28;20051;-63
2023/03/06 05:31:07;;;;;;;0.55;0.45;;;1.20;99.90;;;;;;5093500;28;20047;-63
2023/03/06 05:33:35;;;;;;;1.58;0.65;;;1.20;99.90;;;;;;5092883;28;20032;-63
2023/03/06 05:36:01;;;;;;;0.93;0.60;;;1.20;99.90;;;;;;5074767;28;20040;-63
2023/03/06 05:38:27;;;;;;;0.35;0.35;;;1.20;99.90;;;;;;5057949;28;20043;-63
2023/03/06 05:40:53;;;;;;;3.10;0.47;;;1.20;99.90;;;;;;5093140;28;20047;-63
2023/03/06 05:43:18;;;;;;;0.60;0.43;;;1.20;99.90;;;;;;5093059;28;20055;-63
2023/03/06 05:45:44;;;;;;;0.57;0.43;;;1.20;99.90;;;;;;5074783;28;20036;-63
2023/03/06 05:48:12;;;;;;;1.65;0.65;;;1.20;99.90;;;;;;5093041;28;20479;-63
2023/03/06 05:50:38;;;;;;;1.30;0.68;;;1.20;99.90;;;;;;5074643;28;20076;-64
2023/03/06 05:53:04;;;;;;;1.00;0.65;;;1.80;99.90;;;;;;5074877;28;20048;-66
2023/03/06 05:55:30;;;;;;;0.43;0.40;;;1.20;99.90;;;;;;5093002;28;20055;-65
2023/03/06 05:57:55;;;;;;;0.95;0.60;;;1.30;99.90;;;;;;5092887;28;20089;-64
2023/03/06 06:00:22;;;;;;;0.85;0.57;;;1.30;99.90;;;;;;5074539;28;20047;-64
2023/03/06 06:02:47;;;;;;;0.43;0.40;;;1.30;99.90;;;;;;5075326;28;20534;-62
2023/03/06 06:05:13;;;;;;;0.73;0.60;;;1.30;99.90;;;;;;5092643;28;20137;-65
2023/03/06 06:07:40;;;;;;;0.38;0.38;;;1.30;99.90;;;;;;5092882;28;20471;-62
2023/03/06 06:10:06;;;;;;;0.82;0.60;;;1.30;99.90;;;;;;5092866;28;20032;-63
2023/03/06 06:12:32;;;;;;;0.82;0.52;;;1.30;99.90;;;;;;5092861;28;20127;-63
2023/03/06 06:14:57;;;;;;;0.55;0.47;;;1.30;99.90;;;;;;5074451;28;20123;-64
2023/03/06 06:17:23;;;;;;;1.13;0.47;;;1.40;99.90;;;;;;5092710;28;20036;-63
2023/03/06 06:19:49;;;;;;;2.78;0.70;;;1.30;99.90;;;;;;5092738;28;20586;-63
2023/03/06 06:22:14;;;;;;;1.25;0.70;;;1.30;99.90;;;;;;5073730;28;20044;-64
2023/03/06 06:24:40;;;;;;;1.63;0.95;;;1.30;99.90;;;;;;5091782;28;20086;-64
2023/03/06 06:27:07;;;;;;;0.82;0.73;;;1.20;99.90;;;;;;5091493;28;20475;-64
2023/03/06 06:29:32;;;;;;;1.00;0.70;;;1.20;99.90;;;;;;5073700;28;20048;-64
2023/03/06 06:31:59;;;;;;;1.23;0.70;;;1.30;99.90;;;;;;5091431;28;20093;-64
2023/03/06 06:34:25;;;;;;;1.02;0.73;;;1.10;99.90;;;;;;5091646;28;20039;-64
2023/03/06 06:36:51;;;;;;;0.93;0.68;;;1.10;99.90;;;;;;5092770;28;20081;-63
2023/03/06 06:39:19;;;;;;;1.70;0.80;;;1.10;99.90;;;;;;5095435;28;20036;-63
2023/03/06 06:41:47;;;;;;;1.27;1.10;;;1.00;99.90;;;;;;5095311;28;20406;-64
2023/03/06 06:44:14;;;;;;;2.25;0.85;;;1.10;99.90;;;;;;5095333;28;20079;-64
2023/03/06 06:46:43;;;;;;;1.77;1.00;;;1.10;99.90;;;;;;5095265;28;20384;-64
2023/03/06 06:49:10;;;;;;;2.47;0.98;;;1.10;99.90;;;;;;5094901;28;20051;-70
2023/03/06 06:51:36;;;;;;;2.88;1.08;;;1.10;99.90;;;;;;5060014;28;20039;-64
2023/03/06 06:54:02;;;;;;;1.83;1.17;;;1.20;99.90;;;;;;5095066;28;20028;-63
2023/03/06 06:56:27;;;;;;;1.10;0.68;;;1.20;99.90;;;;;;5095055;28;20036;-63
2023/03/06 06:58:55;;;;;;;0.77;0.75;;;1.20;99.90;;;;;;5094968;28;20169;-63
2023/03/06 07:01:21;;;;;;;1.60;1.08;;;1.20;99.90;;;;;;5076791;28;20040;-63
2023/03/06 07:03:47;;;;;;;2.53;1.02;;;1.20;99.90;;;;;;5094613;28;20047;-62
2023/03/06 07:06:13;;;;;;;3.28;1.75;;;1.20;99.90;;;;;;5094481;28;20388;-63
2023/03/06 07:08:39;;;;;;;2.70;1.40;;;1.20;99.90;;;;;;5094510;28;20054;-62
2023/03/06 07:11:13;;;;;;;3.47;1.23;;;1.20;99.90;;;;;;5076290;28;20043;-62
2023/03/06 07:13:39;;;;;;;4.75;1.10;;;1.20;99.90;;;;;;5076313;28;20075;-62
2023/03/06 07:16:05;;;;;;;2.15;1.13;;;1.20;99.90;;;;;;5094613;28;20384;-62
2023/03/06 07:18:31;;;;;;;2.22;1.13;;;1.20;99.90;;;;;;5094175;28;20445;-61
2023/03/06 07:20:57;;;;;;;1.98;1.10;;;2.30;99.90;;;;;;5094538;28;20047;-64
2023/03/06 07:23:23;;;;;;;1.95;1.02;;;1.20;99.90;;;;;;5094437;28;20115;-64
2023/03/06 07:25:49;;;;;;;1.75;1.10;;;1.20;99.90;;;;;;5075950;28;20031;-62
2023/03/06 07:28:15;;;;;;;1.63;1.10;;;1.20;99.90;;;;;;5094384;28;20544;-62
2023/03/06 07:30:41;;;;;;;1.13;0.90;;;1.30;99.90;;;;;;5094373;28;20072;-62
2023/03/06 07:33:07;;;;;;;1.90;0.80;;;1.30;99.90;;;;;;5094168;28;20406;-62
2023/03/06 07:35:34;;;;;;;2.15;0.98;;;1.30;99.90;;;;;;5094185;28;20040;-64
2023/03/06 07:38:00;;;;;;;2.40;1.00;;;1.40;99.90;;;;;;5093983;28;20395;-62
2023/03/06 07:40:26;;;;;;;2.15;1.00;;;1.30;99.90;;;;;;5093913;28;20055;-62
2023/03/06 07:42:53;;;;;;;2.00;1.10;;;1.30;99.90;;;;;;5075969;28;20067;-62
2023/03/06 07:45:20;;;;;;;1.58;1.10;;;1.30;99.90;;;;;;5093621;28;20047;-62
2023/03/06 07:47:45;;;;;;;1.75;1.10;;;1.30;99.90;;;;;;5075498;28;20459;-63
2023/03/06 07:50:11;;;;;;;2.08;1.15;;;1.30;99.90;;;;;;5093556;28;20079;-64
2023/03/06 07:52:37;;;;;;;1.75;1.05;;;1.40;99.90;;;;;;5093867;28;20044;-65
2023/03/06 07:55:03;;;;;;;1.23;0.95;;;1.40;99.90;;;;;;5093756;28;20160;-65
2023/03/06 07:57:29;;;;;;;2.40;1.17;;;1.50;99.90;;;;;;5093659;28;20044;-65
2023/03/06 07:59:54;;;;;;;1.27;0.82;;;1.50;99.90;;;;;;5093498;28;20075;-65
2023/03/06 08:02:20;;;;;;;2.42;1.45;;;1.50;99.90;;;;;;5093612;28;20064;-63
2023/03/06 08:04:52;;;;;;;1.45;0.80;;;1.60;99.90;;;;;;5093232;28;20048;-64
2023/03/06 08:07:17;;;;;;;1.73;0.88;;;1.70;99.90;;;;;;5093567;28;20040;-64
2023/03/06 08:09:43;;;;;;;3.17;1.13;;;1.80;99.90;;;;;;5093474;28;20040;-64
2023/03/06 08:12:09;;;;;;;2.42;1.15;;;1.80;99.90;;;;;;5093142;28;20350;-64
2023/03/06 08:14:35;;;;;;;3.65;1.60;;;1.90;99.90;;;;;;5075306;28;20043;-63
2023/03/06 08:17:00;;;;;;;4.20;0.93;;;2.00;99.90;;;;;;5093042;28;20036;-63
2023/03/06 08:19:26;;;;;;;1.25;0.90;;;2.30;99.90;;;;;;5093348;28;20043;-63
2023/03/06 08:21:51;;;;;;;2.10;0.90;;;2.20;99.90;;;;;;5093296;28;20032;-63
2023/03/06 08:24:17;;;;;;;2.60;0.52;;;2.30;99.90;;;;;;5093170;28;20036;-63
2023/03/06 08:26:44;;;;;;;0.82;0.65;;;2.50;99.90;;;;;;5074744;28;20037;-66
2023/03/06 08:29:10;;;;;;;0.70;0.70;;;2.50;99.90;;;;;;5093222;28;20089;-71
2023/03/06 08:31:45;;;;;;;1.67;0.75;;;2.80;99.90;;;;;;5093111;28;20044;-63
2023/03/06 08:34:17;;;;;;;0.63;0.57;;;3.50;99.90;;;;;;5093077;28;20398;-63
2023/03/06 08:36:43;;;;;;;2.28;0.95;;;3.00;99.90;;;;;;5093374;28;20039;-63
2023/03/06 08:39:09;;;;;;;1.23;0.70;;;3.00;99.90;;;;;;5092626;28;20047;-63
2023/03/06 08:41:36;;;;;;;1.08;0.70;;;3.00;99.90;;;;;;5093027;28;20047;-63
2023/03/06 08:44:03;;;;;;;4.88;0.80;;;3.30;99.90;;;;;;5092911;28;20036;-64
2023/03/06 08:46:29;;;;;;;1.60;0.75;;;3.30;99.90;;;;;;5092552;28;20036;-64
2023/03/06 08:48:56;;;;;;;2.28;1.00;;;3.50;99.90;;;;;;5092808;28;20040;-63
2023/03/06 08:51:22;;;;;;;3.45;0.70;;;3.60;99.90;;;;;;5092775;28;20040;-64
2023/03/06 08:53:48;;;;;;;1.42;0.82;;;3.50;99.90;;;;;;5092776;28;20043;-64
2023/03/06 08:56:18;;;;;;;1.02;0.80;;;3.50;99.90;;;;;;5074530;28;20479;-63
2023/03/06 08:58:43;;;;;;;2.17;0.70;;;3.60;99.90;;;;;;5073746;28;20036;-64
2023/03/06 09:01:24;;;;;;;1.50;0.93;;;3.50;99.90;;;;;;5092396;28;20040;-63
2023/03/06 09:03:54;;;;;;;0.98;0.70;;;3.60;99.90;;;;;;5092576;28;20044;-63
2023/03/06 09:06:20;;;;;;;1.35;0.70;;;3.60;99.90;;;;;;5092068;28;20489;-63
2023/03/06 09:08:45;;;;;;;3.22;0.93;;;3.70;99.90;;;;;;5092459;28;20055;-64
2023/03/06 09:11:13;;;;;;;0.65;0.57;;;3.80;99.90;;;;;;5092176;28;20109;-64
2023/03/06 09:13:38;;;;;;;0.77;0.55;;;3.80;99.90;;;;;;5074017;28;20050;-63
2023/03/06 09:16:04;;;;;;;1.33;1.00;;;3.90;99.90;;;;;;5092350;28;20051;-63
2023/03/06 09:18:31;;;;;;;1.73;0.70;;;3.90;99.90;;;;;;5074211;28;20063;-63
2023/03/06 09:20:56;;;;;;;0.60;0.50;;;4.10;99.90;;;;;;5092405;28;20444;-63
2023/03/06 09:23:22;;;;;;;1.40;0.70;;;4.20;99.90;;;;;;5092336;28;20050;-63
2023/03/06 09:25:56;;;;;;;0.60;0.43;;;4.40;99.90;;;;;;5092284;28;20509;-63
2023/03/06 09:28:22;;;;;;;0.63;0.63;;;4.50;99.90;;;;;;5073896;28;20384;-63
2023/03/06 09:30:48;;;;;;;0.82;0.70;;;4.60;99.90;;;;;;5092219;28;20068;-63
2023/03/06 09:33:14;;;;;;;1.85;0.63;;;4.70;99.90;;;;;;5074137;28;20091;-63
2023/03/06 09:35:52;;;;;;;1.55;0.60;;;4.80;99.90;;;;;;5092145;28;20131;-66
2023/03/06 09:38:19;;;;;;;2.92;1.13;;;4.90;99.90;;;;;;5092130;28;20040;-65
2023/03/06 09:40:58;;;;;;;1.58;0.70;;;4.90;99.90;;;;;;5092141;28;20484;-63
2023/03/06 09:43:37;;;;;;;2.92;0.90;;;5.00;99.90;;;;;;5092053;28;20036;-64
2023/03/06 09:46:14;;;;;;;0.77;0.52;;;4.90;99.90;;;;;;5091744;28;20044;-64
2023/03/06 09:49:09;;;;;;;0.40;0.40;;;4.90;99.90;;;;;;5092041;28;20529;-63
2023/03/06 09:52:02;;;;;;;3.85;0.47;;;4.80;99.90;;;;;;5091801;28;20123;-64
2023/03/06 09:54:52;;;;;;;0.75;0.60;;;4.80;99.90;;;;;;5050217;28;20071;-65
2023/03/06 09:57:34;;;;;;;0.30;0.30;;;4.80;99.90;;;;;;5073542;28;20040;-63
2023/03/06 10:00:06;;;;;;;0.50;0.50;;;4.90;99.90;;;;;;5091922;28;20327;-64
2023/03/06 10:02:40;;;;;;;0.65;0.52;;;5.00;99.90;;;;;;5091883;28;20515;-64
2023/03/06 10:05:18;;;;;;;1.08;0.52;;;5.00;99.90;;;;;;5091556;28;20095;-64
2023/03/06 10:08:00;;;;;;;0.43;0.43;;;5.00;99.90;;;;;;5073579;28;20403;-64
2023/03/06 10:10:31;;;;;;;0.40;0.22;;;5.00;99.90;;;;;;5092799;28;20051;-64
2023/03/06 10:13:14;;;;;;;2.47;0.50;;;5.00;99.90;;;;;;5095750;28;20437;-64
2023/03/06 10:15:43;;;;;;;0.35;0.35;;;5.10;99.90;;;;;;5095803;28;20499;-63
2023/03/06 10:18:10;;;;;;;0.40;0.40;;;5.20;99.90;;;;;;5095524;28;20036;-63
2023/03/06 10:20:46;;;;;;;0.43;0.30;;;5.30;99.90;;;;;;5077432;28;20403;-64
2023/03/06 10:23:36;;;;;;;0.35;0.35;;;4.70;99.90;;;;;;5095634;28;20028;-64
2023/03/06 10:26:18;;;;;;;0.57;0.35;;;5.50;99.90;;;;;;5077383;28;20040;-64
2023/03/06 10:29:15;;;;;;;1.77;0.52;;;5.60;99.90;;;;;;5095189;28;20055;-64
2023/03/06 10:31:51;;;;;;;0.43;0.32;;;5.70;99.90;;;;;;5095441;28;20073;-64
2023/03/06 10:34:22;;;;;;;0.22;0.22;;;5.80;89.80;;;;;;5095464;28;20123;-64
2023/03/06 10:36:48;;;;;;;0.63;0.40;;;5.90;47.80;;;;;;5077168;28;20127;-64
2023/03/06 10:39:17;;;;;;;1.95;0.65;;;6.10;42.10;;;;;;5095260;28;20126;-64
2023/03/06 10:41:44;;;;;;;1.05;0.28;;;6.20;18.90;;;;;;5095313;28;20399;-64
2023/03/06 10:44:12;;;;;;;0.77;0.30;;;6.40;1.00;;;;;;5076807;28;20047;-64
2023/03/06 10:46:41;;;;;;;1.75;0.40;;;6.40;99.90;;;;;;5095155;28;20505;-64
2023/03/06 10:49:28;;;;;;;0.30;0.30;;;6.40;1.00;;;;;;5095425;28;20040;-64
2023/03/06 10:52:05;;;;;;;1.02;0.43;;;6.50;99.90;;;;;;5095117;28;20066;-64
2023/03/06 10:54:37;;;;;;;0.22;0.22;;;6.50;1.00;;;;;;5095084;28;20040;-64
2023/03/06 10:57:26;;;;;;;0.35;0.25;;;6.70;1.00;;;;;;5094988;28;20050;-64
2023/03/06 10:59:55;;;;;;;2.20;0.47;;;6.70;99.90;;;;;;5094686;28;20138;-64
2023/03/06 11:02:28;;;;;;;0.93;0.30;;;7.00;99.90;;;;;;5094904;28;20134;-64
2023/03/06 11:04:55;;;;;;;0.35;0.35;;;7.20;99.90;;;;;;5094583;28;20048;-64
2023/03/06 11:07:23;;;;;;;0.50;0.40;;;7.20;99.90;;;;;;5094804;28;20047;-65
2023/03/06 11:09:57;;;;;;;0.40;0.35;;;7.20;40.80;;;;;;5094361;28;20123;-66
2023/03/06 11:12:36;;;;;;;1.17;0.40;;;7.40;99.90;;;;;;5094708;28;20395;-66
2023/03/06 11:15:13;;;;;;;2.20;0.30;;;7.40;99.90;;;;;;5094332;28;20051;-65
2023/03/06 11:17:51;;;;;;;0.47;0.30;;;7.50;99.90;;;;;;5094301;28;20407;-64
2023/03/06 11:20:17;;;;;;;3.45;0.30;;;7.40;92.90;;;;;;5094539;28;20372;-64
2023/03/06 11:22:48;;;;;;;2.10;0.30;;;7.40;99.90;;;;;;5094056;28;20548;-64
2023/03/06 11:25:17;;;;;;;0.30;0.30;;;7.40;1.00;;;;;;5094159;28;20101;-67
2023/03/06 11:27:45;;;;;;;0.60;0.28;;;7.40;99.90;;;;;;5076015;28;20411;-64
2023/03/06 11:30:19;;;;;;;1.65;0.40;;;7.30;37.30;;;;;;5094062;28;20045;-64
2023/03/06 11:32:52;;;;;;;0.82;0.40;;;7.30;99.90;;;;;;5094244;28;20517;-64
2023/03/06 11:35:25;;;;;;;0.32;0.25;;;7.30;1.00;;;;;;5075816;28;20085;-64
2023/03/06 11:38:13;;;;;;;0.85;0.28;;;7.30;1.00;;;;;;5094090;28;20036;-64
2023/03/06 11:40:45;;;;;;;0.30;0.30;;;7.20;99.90;;;;;;5059015;28;20040;-64
2023/03/06 11:43:34;;;;;;;0.43;0.28;;;7.10;99.90;;;;;;5094065;28;20514;-64
2023/03/06 11:46:14;;;;;;;0.20;0.20;;;7.10;99.90;;;;;;5094063;28;20036;-65
2023/03/06 11:48:51;;;;;;;0.35;0.20;;;7.40;99.90;;;;;;5094022;28;20055;-64
2023/03/06 11:51:24;;;;;;;1.55;0.32;;;7.70;99.90;;;;;;5093709;28;20051;-64
2023/03/06 11:53:52;;;;;;;0.40;0.20;;;7.70;99.90;;;;;;5058853;28;20119;-64
2023/03/06 11:56:17;;;;;;;0.20;0.20;;;7.50;1.00;;;;;;5075418;28;20050;-65
2023/03/06 11:59:06;;;;;;;0.30;0.30;;;7.40;99.90;;;;;;5075305;28;20491;-64
2023/03/06 12:01:41;;;;;;;3.05;0.40;;;7.30;1.00;;;;;;5093804;28;20415;-63
2023/03/06 12:04:31;;;;;;;0.22;0.22;;;7.60;1.00;;;;;;5093253;28;20044;-63
2023/03/06 12:07:29;;;;;;;0.80;0.28;;;7.80;99.90;;;;;;5075216;28;20058;-63
2023/03/06 12:10:29;;;;;;;2.15;0.45;;;7.80;99.90;;;;;;5093683;28;20070;-63
2023/03/06 12:13:01;;;;;;;2.63;0.30;;;7.70;1.00;;;;;;5093573;28;20032;-63
2023/03/06 12:15:47;;;;;;;0.20;0.20;;;7.60;99.90;;;;;;5093464;28;20048;-63
2023/03/06 12:18:25;;;;;;;0.20;0.20;;;7.70;1.00;;;;;;5093478;28;20154;-63
2023/03/06 12:21:02;;;;;;;0.40;0.30;;;7.90;99.90;;;;;;5093348;28;20036;-63
2023/03/06 12:23:49;;;;;;;2.17;0.30;;;8.00;99.90;;;;;;5093326;28;20363;-63
2023/03/06 12:26:53;;;;;;;1.77;0.40;;;8.10;99.90;;;;;;5075142;28;20465;-63
2023/03/06 12:30:16;;;;;;;0.32;0.32;;;8.10;99.90;;;;;;5078406;28;20058;-64
2023/03/06 12:32:59;;;;;;;1.83;0.68;;;7.90;99.90;;;;;;4994601;28;20184;-63
2023/03/06 12:36:01;;;;;;;1.90;0.45;;;7.70;1.00;;;;;;5009806;28;20042;-64
2023/03/06 12:38:54;;;;;;;1.60;0.50;;;7.60;99.90;;;;;;5078456;28;20131;-63
2023/03/06 12:41:19;;;;;;;0.20;0.20;;;7.50;99.90;;;;;;5093341;28;20063;-63
2023/03/06 12:43:45;;;;;;;0.77;0.40;;;7.40;99.90;;;;;;5092679;28;20055;-64
2023/03/06 12:46:18;;;;;;;1.02;0.50;;;7.40;99.90;;;;;;5093013;28;20047;-64
2023/03/06 12:49:00;;;;;;;0.40;0.40;;;7.40;99.90;;;;;;5092869;28;20047;-63
2023/03/06 12:51:26;;;;;;;0.30;0.30;;;7.40;99.90;;;;;;5092910;28;20048;-64
2023/03/06 12:53:52;;;;;;;0.90;0.50;;;7.50;99.90;;;;;;5092764;28;20046;-64
2023/03/06 12:56:18;;;;;;;0.40;0.40;;;7.40;96.90;;;;;;5074373;28;20051;-64
2023/03/06 12:58:48;;;;;;;1.30;0.57;;;7.40;99.90;;;;;;5092432;28;20181;-64
2023/03/06 13:01:37;;;;;;;1.35;0.30;;;7.40;99.90;;;;;;5092729;28;20045;-64
2023/03/06 13:04:26;;;;;;;2.63;0.43;;;7.40;99.90;;;;;;5092193;28;20059;-64
2023/03/06 13:06:58;;;;;;;0.52;0.30;;;7.30;1.00;;;;;;5092245;28;20047;-64
2023/03/06 13:09:36;;;;;;;0.88;0.45;;;7.30;1.00;;;;;;5092529;28;20036;-65